Date,TemperatureHighF,TemperatureAvgF,TemperatureLowF,DewpointHighF,DewpointAvgF,DewpointLowF,HumidityHigh,HumidityAvg,HumidityLow,PressureMaxIn,PressureMinIn,WindSpeedMaxMPH,WindSpeedAvgMPH,GustSpeedMaxMPH,PrecipitationSumIn
2013-1-1,50.5,47.3,43.5,50.0,44.6,34.5,100,91,65,30.14,29.97,5,1,9,1.16
2013-1-2,47.4,40.3,38.2,46.6,37.2,34.7,97,89,85,30.20,30.00,13,2,21,0.00
2013-1-3,44.1,37.4,31.1,34.5,31.5,26.8,90,80,55,30.40,30.17,9,2,16,0.00
2013-1-4,46.2,36.0,28.9,27.9,25.8,24.2,85,67,43,30.47,30.37,9,2,20,0.00
2013-1-5,49.1,38.5,27.8,37.3,28.0,24.4,88,68,43,30.43,30.28,6,1,9,0.01
2013-1-6,48.2,41.5,38.8,39.9,37.2,32.6,95,85,65,30.33,30.19,6,1,15,0.03
2013-1-7,53.9,39.6,31.5,34.9,30.9,27.2,90,73,43,30.43,30.31,6,1,13,0.00
2013-1-8,56.2,47.2,37.0,45.4,38.2,31.6,87,71,59,30.42,30.31,9,2,15,0.00
2013-1-9,55.0,53.0,51.2,53.8,50.2,45.4,97,91,80,30.43,30.33,5,1,8,0.12
2013-1-10,66.1,56.6,50.8,58.7,53.0,49.1,96,88,72,30.43,30.15,12,2,20,0.01
2013-1-11,64.7,63.3,61.1,63.3,61.7,58.2,98,95,84,30.16,30.08,16,4,25,0.20
2013-1-12,71.2,65.5,63.0,64.8,62.6,59.6,98,91,75,30.13,30.00,7,2,12,0.05
2013-1-13,69.1,64.3,61.4,62.9,60.8,58.3,97,89,77,30.05,29.94,8,3,20,1.44
2013-1-14,61.3,45.1,39.6,60.4,43.8,38.3,97,95,93,30.25,30.02,8,3,15,1.61
2013-1-15,43.8,42.2,39.8,43.0,41.2,38.8,98,97,96,30.17,30.00,6,1,12,1.03
2013-1-16,50.3,46.5,43.5,49.2,45.5,42.2,100,96,94,30.07,29.94,7,1,14,0.13
2013-1-17,44.1,40.4,35.0,42.8,37.9,30.7,96,91,74,30.36,29.71,16,6,35,0.58
2013-1-18,49.3,37.2,29.8,34.4,30.5,28.1,95,79,48,30.58,30.36,6,2,12,0.00
2013-1-19,54.0,39.2,28.9,34.1,31.0,27.4,97,76,41,30.48,30.25,8,2,15,0.01
2013-1-20,59.5,42.6,30.4,39.0,34.4,29.0,96,76,43,30.26,30.14,6,0,13,0.00
2013-1-21,50.3,38.4,29.0,36.5,26.0,18.1,96,66,34,30.26,30.12,9,1,20,0.01
2013-1-22,39.6,31.9,26.0,18.8,13.4,9.2,60,46,32,30.41,30.25,9,3,17,0.00
2013-1-23,51.6,37.9,28.9,34.4,21.2,11.1,83,52,39,30.42,30.20,8,1,15,0.00
2013-1-24,49.6,40.0,28.8,42.4,24.3,10.0,82,55,31,30.40,30.19,13,4,22,0.00
2013-1-25,36.6,33.7,31.0,36.2,23.7,11.4,99,70,38,30.40,30.17,12,4,25,0.05
2013-1-26,49.1,39.1,31.7,36.7,32.9,29.4,100,80,50,30.35,30.22,7,2,12,0.00
2013-1-27,51.7,42.4,31.4,36.2,33.2,29.1,92,71,54,30.46,30.33,10,3,20,0.00
2013-1-28,54.5,48.7,45.4,47.0,40.4,32.8,89,73,61,30.40,30.26,8,4,16,0.00
2013-1-29,68.4,58.5,49.2,62.0,54.3,45.8,96,86,75,30.27,29.89,8,2,14,0.01
2013-1-30,67.4,58.0,42.6,65.3,54.9,33.0,96,90,66,29.87,29.54,16,6,33,1.90
2013-1-31,48.0,40.5,34.4,35.1,26.3,23.1,79,58,39,30.14,29.81,16,5,28,0.00
2013-2-1,44.4,32.5,24.9,33.6,18.8,10.7,81,58,34,30.45,30.11,12,4,23,0.00
2013-2-2,37.7,29.7,21.2,35.0,24.3,16.3,96,81,54,30.42,30.15,7,1,14,0.05
2013-2-3,53.2,38.5,27.3,41.1,30.2,26.1,97,76,38,30.18,30.04,7,2,20,0.03
2013-2-4,47.7,37.7,27.4,33.7,28.5,24.3,90,71,48,30.18,30.03,6,1,10,0.00
2013-2-5,63.4,49.0,40.5,47.8,40.2,32.7,94,73,45,30.07,29.95,7,1,13,0.01
2013-2-6,64.3,47.0,32.5,44.9,36.5,31.5,98,72,34,30.21,30.06,7,1,10,0.01
2013-2-7,51.7,46.8,41.0,48.9,42.6,35.6,96,85,69,30.15,29.96,3,0,8,0.11
2013-2-8,55.0,47.0,37.7,48.8,42.1,31.7,96,84,57,30.26,29.94,13,3,20,0.06
2013-2-9,56.8,43.0,33.9,36.3,31.4,28.3,82,66,35,30.35,30.22,9,3,20,0.00
2013-2-10,56.3,50.1,45.7,50.1,38.8,29.0,96,68,36,30.28,30.03,16,5,27,0.91
2013-2-11,56.9,52.0,44.9,54.8,47.8,37.9,97,86,56,30.14,30.03,8,2,18,0.07
2013-2-12,50.9,45.0,40.7,42.1,36.7,32.3,96,74,50,30.16,29.85,9,1,16,0.18
2013-2-13,48.9,44.3,40.5,46.3,41.2,35.8,97,89,77,30.03,29.73,10,2,20,0.03
2013-2-14,56.9,44.9,36.6,39.0,35.3,31.9,87,70,47,30.12,30.02,8,1,12,0.00
2013-2-15,59.1,44.1,31.4,42.3,35.6,30.1,97,75,46,30.14,30.01,14,2,22,0.00
2013-2-16,41.5,34.9,26.3,31.1,22.3,14.4,78,61,39,30.21,30.04,12,3,27,0.00
2013-2-17,46.0,32.3,21.8,22.9,16.3,12.2,77,54,30,30.34,30.21,9,2,17,0.00
2013-2-18,59.4,44.6,29.0,32.5,25.4,19.2,78,49,33,30.36,30.05,13,4,27,0.00
2013-2-19,55.6,45.0,36.7,44.9,31.5,19.3,95,64,25,30.23,30.00,12,4,24,0.28
2013-2-20,42.4,36.3,26.5,22.8,18.3,12.3,84,50,30,30.27,30.19,12,2,20,0.00
2013-2-21,57.0,41.8,30.6,42.9,25.5,16.7,96,56,24,30.25,29.95,6,2,13,0.70
2013-2-22,47.0,45.7,43.5,44.4,42.8,41.4,96,90,83,30.13,30.03,12,5,22,0.46
2013-2-23,56.2,48.7,44.0,49.9,46.2,42.4,97,91,78,30.05,29.86,7,1,12,0.42
2013-2-24,57.7,45.2,35.9,43.5,34.5,30.4,94,69,36,30.09,29.94,7,2,14,0.00
2013-2-25,57.5,46.4,36.5,42.5,34.0,27.9,86,62,45,30.04,29.79,10,2,27,0.00
2013-2-26,51.0,45.1,41.7,45.1,40.8,36.1,95,86,66,29.78,29.51,14,7,28,0.69
2013-2-27,56.3,46.6,41.0,40.0,34.9,32.3,81,65,42,29.92,29.78,14,4,26,0.00
2013-2-28,43.6,39.5,36.7,32.6,29.0,26.6,73,66,58,30.06,29.88,7,2,17,0.00
2013-3-1,40.8,37.8,34.7,32.4,30.2,27.3,91,74,67,30.05,30.00,6,1,10,0.01
2013-3-2,38.8,35.2,33.1,32.3,29.2,24.9,92,79,65,30.11,29.99,7,2,15,0.01
2013-3-3,39.2,32.1,25.7,25.5,22.5,19.5,84,68,46,30.14,30.08,12,3,20,0.00
2013-3-4,53.7,40.1,23.5,32.8,25.1,20.8,91,60,32,30.24,30.02,7,1,12,0.00
2013-3-5,61.7,50.0,38.1,55.3,41.6,28.2,92,73,54,30.06,29.65,18,4,36,0.39
2013-3-6,41.3,36.3,32.7,31.2,27.0,21.8,88,69,60,30.27,29.93,13,5,26,0.01
2013-3-7,47.7,38.9,33.9,33.6,29.8,27.5,79,70,55,30.35,30.25,10,4,20,0.00
2013-3-8,56.4,41.9,31.0,30.4,26.7,19.7,83,59,24,30.39,30.28,10,3,18,0.00
2013-3-9,59.3,48.6,33.9,34.4,31.3,28.1,84,54,35,30.33,30.19,9,2,16,0.00
2013-3-10,70.0,60.6,53.5,42.8,35.4,32.1,51,40,25,30.18,29.99,15,7,29,0.00
2013-3-11,61.2,56.3,45.0,55.0,50.4,42.2,95,81,52,30.02,29.75,13,5,26,0.88
2013-3-12,57.9,45.5,39.2,41.7,34.4,31.0,91,67,37,30.13,29.91,10,3,22,0.00
2013-3-13,50.1,41.0,31.6,34.0,27.6,20.9,91,62,37,30.35,30.13,12,3,24,0.00
2013-3-14,52.7,39.1,29.1,37.1,22.2,15.8,87,53,25,30.44,30.27,9,3,20,0.01
2013-3-15,73.9,53.0,32.2,45.8,39.3,30.7,96,65,35,30.30,29.96,13,3,28,0.00
2013-3-16,76.0,66.6,55.3,49.3,45.5,43.1,65,48,34,29.96,29.83,14,5,26,0.00
2013-3-17,69.8,63.2,54.8,54.1,49.5,45.5,79,62,52,29.97,29.87,9,3,20,0.00
2013-3-18,61.1,55.3,52.2,56.6,52.3,49.0,96,90,78,29.92,29.78,12,3,25,0.69
2013-3-19,61.7,51.8,37.3,51.8,33.8,18.0,95,56,25,30.14,29.90,12,4,23,0.00
2013-3-20,57.4,46.7,36.1,31.5,23.6,15.6,72,43,22,30.17,29.93,14,3,30,0.00
2013-3-21,46.1,36.0,27.6,30.3,18.0,10.0,76,50,29,30.07,29.96,12,3,20,0.00
2013-3-22,47.1,40.0,32.3,37.0,23.9,16.6,81,53,40,30.10,30.01,5,1,10,0.00
2013-3-23,52.6,45.6,40.1,47.7,42.3,35.5,95,88,77,30.04,29.76,5,1,8,0.29
2013-3-24,57.3,51.3,42.8,53.3,47.2,31.8,97,86,62,29.85,29.45,14,5,40,1.83
2013-3-25,42.7,37.4,33.5,31.4,25.8,23.7,76,63,58,30.11,29.70,16,7,29,0.00
2013-3-26,40.8,35.7,31.6,29.9,27.6,25.3,88,73,59,30.34,30.10,8,2,15,0.00
2013-3-27,52.6,40.9,31.5,30.0,26.9,25.3,79,59,36,30.40,30.28,12,3,18,0.00
2013-3-28,59.5,45.1,28.9,34.3,29.9,26.4,90,59,34,30.40,30.26,9,2,21,0.00
2013-3-29,57.4,46.0,34.2,40.7,35.5,32.0,93,69,40,30.36,30.22,5,1,12,0.00
2013-3-30,69.7,53.5,43.0,55.1,46.3,40.9,96,79,44,30.24,30.01,17,1,32,0.34
2013-3-31,63.9,58.6,55.0,59.3,56.0,54.0,99,91,73,30.01,29.86,9,2,16,0.94
2013-4-1,68.7,57.6,44.5,56.6,46.5,37.5,98,70,37,30.07,29.89,13,2,18,0.01
2013-4-2,57.5,50.3,41.8,38.8,29.9,24.3,70,47,30,30.23,30.07,7,3,15,0.00
2013-4-3,57.2,50.4,44.0,42.4,29.0,22.7,88,45,33,30.24,30.14,7,3,13,0.01
2013-4-4,46.5,44.4,42.8,44.5,42.9,40.7,96,95,90,30.18,29.99,5,0,10,0.72
2013-4-5,65.1,51.8,42.6,45.2,41.4,36.6,97,72,37,30.10,30.00,9,3,22,0.01
2013-4-6,72.1,56.1,37.4,44.0,39.7,35.8,95,60,30,30.20,30.06,10,2,18,0.00
2013-4-7,74.6,61.7,47.8,50.5,46.1,40.1,80,58,37,30.18,30.03,13,3,27,0.00
2013-4-8,76.8,64.2,53.9,56.9,52.3,48.7,87,67,44,30.11,30.01,8,2,18,0.00
2013-4-9,80.6,68.5,52.8,60.3,55.9,50.8,94,66,43,30.18,30.02,9,2,20,0.00
2013-4-10,83.7,70.9,57.1,61.8,58.0,54.3,91,66,44,30.10,29.87,10,2,19,0.00
2013-4-11,78.4,69.0,60.9,66.8,60.5,56.6,96,75,58,29.89,29.60,13,4,35,1.52
2013-4-12,66.3,59.1,51.6,61.8,47.7,37.4,95,69,35,29.96,29.61,9,3,21,0.01
2013-4-13,74.1,58.5,43.4,45.5,42.0,36.7,92,58,27,30.08,29.96,10,1,18,0.00
2013-4-14,63.0,53.7,44.5,54.1,47.6,42.3,95,81,50,30.04,29.92,9,1,21,0.04
2013-4-15,76.2,65.2,55.7,59.9,57.0,53.7,93,76,55,30.10,29.93,8,2,17,0.00
2013-4-16,79.9,70.2,63.0,65.2,62.2,58.3,88,76,60,30.22,30.10,10,3,18,0.00
2013-4-17,83.7,71.6,65.6,70.9,63.9,61.2,90,78,56,30.19,30.03,10,2,20,0.02
2013-4-18,81.6,71.4,62.2,62.9,60.2,57.3,93,70,46,30.05,29.81,12,4,25,0.00
2013-4-19,73.2,58.4,43.6,65.1,51.6,38.2,95,79,60,30.09,29.68,13,5,28,1.18
2013-4-20,62.3,48.7,33.2,39.7,34.8,31.0,96,62,32,30.28,30.09,9,2,20,0.00
2013-4-21,70.4,56.0,41.6,42.6,37.7,34.0,82,53,30,30.37,30.22,7,1,13,0.00
2013-4-22,71.3,59.3,48.9,48.9,43.6,40.6,83,58,34,30.32,30.13,7,1,12,0.00
2013-4-23,73.8,62.0,51.1,51.6,44.6,35.6,70,54,42,30.23,30.03,8,3,16,0.00
2013-4-24,71.3,60.0,48.3,61.7,54.4,44.6,92,82,66,30.21,30.02,9,2,23,0.18
2013-4-25,67.1,53.1,43.1,44.4,39.1,33.0,87,62,32,30.35,30.21,7,2,21,0.00
2013-4-26,74.5,59.2,41.9,52.0,40.2,33.8,93,53,26,30.38,30.23,7,2,16,0.31
2013-4-27,65.5,57.1,52.8,56.6,53.5,51.5,97,89,65,30.38,30.08,9,2,17,0.72
2013-4-28,58.6,57.7,56.5,57.8,56.2,54.3,97,95,87,30.12,29.95,12,3,20,1.95
2013-4-29,73.0,62.1,55.3,60.9,56.8,53.9,97,84,59,30.04,29.93,6,1,12,0.00
2013-4-30,78.7,62.8,48.5,62.5,55.2,47.7,98,79,44,30.08,29.95,7,1,15,0.00
2013-5-1,74.0,67.1,60.5,59.3,57.7,53.9,93,73,57,30.16,30.07,7,2,13,0.00
2013-5-2,73.1,64.9,53.8,60.3,56.3,51.8,95,74,60,30.17,30.09,9,3,23,0.00
2013-5-3,66.5,63.1,60.7,56.7,55.4,53.7,83,76,67,30.10,29.94,12,4,26,0.00
2013-5-4,62.6,55.2,52.3,53.8,51.6,49.4,97,88,67,29.95,29.87,15,3,25,2.09
2013-5-5,64.4,52.3,47.6,54.4,49.4,46.5,97,91,60,29.88,29.75,9,2,24,1.52
2013-5-6,54.8,50.4,46.8,51.3,48.7,45.7,100,94,86,29.92,29.79,7,1,14,0.30
2013-5-7,71.4,59.2,49.9,56.0,51.9,48.9,97,79,49,29.99,29.88,7,1,18,0.06
2013-5-8,75.7,64.2,50.9,62.3,56.6,49.5,97,78,55,30.06,29.96,8,2,15,0.10
2013-5-9,82.3,68.4,54.6,64.8,58.7,53.5,98,75,39,30.11,30.00,7,1,13,0.00
2013-5-10,75.0,67.3,58.3,61.2,59.3,56.9,96,77,59,30.07,29.93,7,2,14,0.00
2013-5-11,75.3,65.6,57.7,65.0,61.1,55.7,96,86,64,29.99,29.88,9,2,14,0.31
2013-5-12,67.5,57.9,50.3,55.0,42.7,33.3,96,61,29,30.15,29.98,6,2,18,0.00
2013-5-13,69.0,56.9,50.5,42.9,37.8,35.1,61,50,29,30.26,30.13,7,1,16,0.00
2013-5-14,79.8,65.8,42.4,58.4,49.3,41.3,97,56,45,30.25,30.06,8,2,17,0.00
2013-5-15,84.4,73.6,65.0,58.5,58.0,53.0,79,59,34,30.16,29.98,5,0,11,0.00
2013-5-16,83.0,70.9,59.5,65.2,60.2,56.6,94,71,45,30.08,29.95,7,1,13,0.00
2013-5-17,80.2,69.6,61.3,65.9,61.4,58.1,94,76,53,30.08,29.99,8,1,15,0.10
2013-5-18,73.5,68.4,64.9,69.3,66.2,63.2,96,93,86,30.06,29.99,8,2,15,0.52
2013-5-19,69.5,66.1,60.4,68.9,65.0,59.5,98,96,91,30.10,29.96,10,2,20,2.12
2013-5-20,82.3,68.9,56.9,70.0,63.9,56.3,99,86,60,30.11,29.98,8,1,14,0.00
2013-5-21,87.3,75.2,64.3,72.4,68.1,63.4,98,81,53,30.03,29.85,8,1,14,0.00
2013-5-22,85.4,74.6,66.1,70.3,67.0,64.3,95,78,51,29.94,29.83,9,2,20,0.00
2013-5-23,81.7,72.4,63.2,66.5,62.0,56.2,96,72,44,30.00,29.88,10,2,20,0.00
2013-5-24,71.8,64.3,53.3,56.9,51.8,43.9,86,65,41,30.25,30.00,7,2,23,0.00
2013-5-25,79.4,62.3,47.6,54.4,47.4,40.0,94,63,26,30.33,30.18,5,1,12,0.00
2013-5-26,82.2,65.2,49.0,60.5,54.0,47.6,96,70,40,30.26,30.15,3,0,10,0.00
2013-5-27,84.3,69.3,53.3,64.4,58.1,51.9,96,71,41,30.21,30.08,8,1,17,0.00
2013-5-28,84.5,73.2,62.7,65.1,61.7,58.9,95,70,43,30.17,30.07,10,2,15,0.00
2013-5-29,84.2,73.6,61.4,67.5,62.8,57.8,90,71,41,30.19,30.09,8,2,16,0.00
2013-5-30,82.2,74.2,66.6,67.7,65.3,62.7,88,74,58,30.21,30.07,9,2,20,0.00
2013-5-31,85.2,75.0,64.5,68.2,65.9,62.8,96,75,51,30.16,30.02,8,2,18,0.00
2013-6-1,84.2,74.3,67.4,74.3,68.6,64.2,96,83,65,30.06,29.94,8,2,22,0.47
2013-6-2,82.0,74.4,68.7,73.6,69.8,66.6,97,87,63,29.97,29.85,8,1,17,0.08
2013-6-3,83.9,72.6,66.2,69.6,66.3,62.6,98,82,55,29.97,29.86,7,0,12,0.00
2013-6-4,86.3,72.1,59.9,67.3,62.6,58.5,96,74,45,30.01,29.94,6,0,12,0.00
2013-6-5,82.0,70.5,64.1,72.0,66.8,62.1,97,89,68,30.00,29.89,10,1,24,0.64
2013-6-6,82.4,73.3,67.3,71.2,68.3,66.0,96,85,64,29.92,29.72,7,2,13,0.00
2013-6-7,82.8,72.2,65.2,71.2,68.3,64.3,97,88,61,29.85,29.68,6,1,12,0.26
2013-6-8,80.7,71.3,64.7,71.0,66.6,63.8,98,86,62,30.05,29.85,6,0,9,0.01
2013-6-9,81.6,71.5,65.8,72.3,68.9,64.5,98,92,72,30.07,29.95,8,1,17,0.54
2013-6-10,83.3,74.2,69.5,70.5,68.3,66.8,96,83,60,29.99,29.87,8,2,15,0.10
2013-6-11,89.2,78.6,71.2,75.5,71.4,67.8,96,80,54,30.02,29.93,6,1,15,0.06
2013-6-12,91.2,79.2,69.1,78.5,73.4,68.2,98,84,59,30.05,29.93,6,0,12,0.00
2013-6-13,89.1,79.0,71.1,75.7,72.4,66.8,95,81,62,29.94,29.71,13,3,23,0.53
2013-6-14,82.9,73.5,63.1,66.7,62.6,60.1,90,70,48,29.99,29.85,5,1,15,0.00
2013-6-15,85.4,73.0,60.3,65.9,62.6,58.9,96,72,46,30.11,29.99,7,1,13,0.00
2013-6-16,88.0,74.5,63.8,73.7,67.1,62.6,96,80,53,30.12,29.97,6,1,13,0.35
2013-6-17,82.2,72.9,67.9,74.3,69.6,66.8,97,90,76,30.04,29.90,6,1,10,0.02
2013-6-18,80.7,72.6,66.9,75.0,70.0,65.7,96,92,79,29.92,29.83,7,1,20,0.32
2013-6-19,86.2,73.2,63.3,69.7,65.9,62.4,98,80,52,30.05,29.91,3,0,10,0.00
2013-6-20,84.5,75.1,66.3,71.2,67.3,64.5,98,78,57,30.17,30.06,7,1,13,0.00
2013-6-21,86.0,73.8,65.9,72.6,67.4,64.2,96,82,53,30.23,30.12,6,0,8,0.00
2013-6-22,87.8,74.9,64.1,69.0,65.7,62.9,98,76,48,30.21,30.06,7,1,12,0.00
2013-6-23,85.2,74.8,65.6,71.3,67.9,63.9,95,80,60,30.18,30.06,7,1,13,0.00
2013-6-24,86.4,76.4,68.4,73.3,70.5,67.4,97,83,62,30.21,30.06,7,1,14,0.00
2013-6-25,86.9,76.8,69.4,75.1,71.2,67.9,95,84,63,30.14,29.99,6,1,13,0.01
2013-6-26,88.0,79.2,71.1,77.7,73.1,69.9,97,83,66,30.05,29.88,8,2,13,0.01
2013-6-27,87.3,78.7,72.9,77.9,73.1,69.8,96,83,69,29.94,29.77,8,2,16,0.52
2013-6-28,90.8,77.9,66.8,76.8,71.1,65.4,98,82,54,29.83,29.64,9,1,23,0.07
2013-6-29,87.3,75.3,65.9,71.4,65.3,58.4,98,75,40,29.71,29.64,5,1,13,0.04
2013-6-30,88.6,75.4,63.9,69.9,64.8,59.0,97,73,39,29.78,29.67,5,0,12,0.00
2013-7-1,81.9,73.4,65.8,71.7,67.7,63.7,95,83,60,29.90,29.75,7,1,13,0.03
2013-7-2,84.5,73.8,66.7,71.5,68.4,65.5,98,85,59,30.05,29.89,8,2,20,1.19
2013-7-3,73.9,70.6,68.3,71.8,69.2,67.1,98,96,92,30.14,30.03,5,1,12,0.47
2013-7-4,74.7,70.1,67.4,72.9,68.9,66.5,98,96,91,30.14,30.05,6,1,21,1.46
2013-7-5,74.5,71.2,69.1,73.3,70.0,68.2,97,96,93,30.17,30.08,7,1,12,0.38
2013-7-6,75.4,70.5,69.0,73.2,69.5,68.4,98,97,93,30.13,30.09,7,1,16,2.23
2013-7-7,80.7,73.2,68.9,73.8,71.2,68.3,99,94,77,30.15,30.08,8,2,15,1.04
2013-7-8,87.2,76.1,70.6,78.3,72.8,70.0,99,90,68,30.18,30.07,2,0,8,0.01
2013-7-9,88.0,78.1,72.5,78.7,74.5,71.6,98,89,62,30.15,30.03,7,0,12,0.10
2013-7-10,86.7,77.1,68.7,78.7,74.0,67.6,98,91,71,30.07,29.91,6,1,21,0.91
2013-7-11,86.2,74.9,68.8,77.8,71.4,67.9,98,90,67,29.98,29.85,5,0,12,0.38
2013-7-12,87.6,76.3,68.6,74.6,70.9,65.3,97,84,56,29.94,29.87,3,0,12,0.01
2013-7-13,82.8,74.0,64.0,72.4,68.1,62.9,97,83,68,30.05,29.93,5,1,12,0.00
2013-7-14,85.0,75.8,69.6,75.2,71.7,68.0,98,88,71,30.18,30.03,3,0,12,0.31
2013-7-15,89.6,76.7,69.3,76.2,71.7,68.2,98,86,56,30.27,30.18,3,0,9,0.09
2013-7-16,92.1,79.3,69.1,78.3,73.1,68.2,98,83,56,30.30,30.21,3,0,8,0.00
2013-7-17,95.1,79.7,69.6,80.7,74.6,68.7,98,86,54,30.27,30.11,3,0,8,0.03
2013-7-18,91.5,79.3,69.9,77.9,72.5,68.7,97,81,54,30.20,30.03,5,0,10,0.02
2013-7-19,93.1,81.0,72.2,78.0,74.2,71.0,98,81,52,30.09,29.94,5,0,8,0.00
2013-7-20,89.4,77.9,72.6,77.5,73.4,71.0,97,87,60,30.01,29.90,2,0,12,0.41
2013-7-21,86.3,76.2,72.5,77.1,73.4,71.3,97,91,69,30.01,29.92,3,0,8,0.24
2013-7-22,85.9,76.6,69.4,76.3,71.8,68.5,98,86,63,29.98,29.83,5,1,12,0.00
2013-7-23,80.6,75.4,71.2,75.0,71.7,68.9,95,88,78,29.94,29.81,5,0,12,0.34
2013-7-24,86.1,75.3,69.0,75.3,71.6,68.1,98,89,67,29.89,29.80,2,0,7,0.01
2013-7-25,88.0,75.9,66.1,73.8,68.8,64.2,96,80,55,30.00,29.86,2,0,7,0.00
2013-7-26,88.3,74.3,63.1,74.4,68.2,61.7,97,82,59,30.05,29.95,3,0,9,0.00
2013-7-27,84.7,75.1,69.2,73.4,70.4,68.1,97,86,66,29.98,29.86,7,1,12,0.00
2013-7-28,84.4,75.0,67.4,73.2,69.0,64.7,97,82,61,30.05,29.90,2,0,6,0.00
2013-7-29,80.3,68.8,60.8,65.5,61.7,58.5,93,79,55,30.18,30.04,2,0,6,0.00
2013-7-30,88.3,72.2,59.9,72.7,65.0,58.7,98,80,47,30.23,30.09,0,0,1,0.00
2013-7-31,77.7,71.7,68.3,73.3,69.9,67.2,98,94,82,30.13,29.95,6,1,13,1.19
2013-8-1,84.9,75.5,70.6,74.7,71.1,68.8,98,87,62,29.98,29.91,2,0,10,0.00
2013-8-2,87.9,74.9,66.5,71.7,68.2,65.3,96,81,53,30.02,29.94,2,0,6,0.00
2013-8-3,84.2,74.4,65.1,74.4,69.7,64.0,98,86,67,30.05,29.98,3,0,12,0.00
2013-8-4,86.3,76.8,68.6,74.9,71.2,65.9,97,84,64,30.05,29.97,3,0,12,0.00
2013-8-5,86.8,74.7,66.4,71.4,65.8,62.0,92,75,46,30.05,29.96,3,0,7,0.00
2013-8-6,84.8,76.0,70.0,77.0,70.6,67.6,97,84,66,30.00,29.93,5,0,12,0.74
2013-8-7,82.4,73.3,70.2,77.0,71.5,68.1,98,94,76,30.02,29.94,6,1,16,0.24
2013-8-8,87.0,76.5,71.4,76.9,73.1,70.6,98,90,71,30.04,29.95,6,1,16,0.17
2013-8-9,89.1,78.7,71.1,77.8,74.2,70.5,99,87,66,30.05,29.97,5,1,10,0.01
2013-8-10,85.1,76.3,72.6,77.8,74.0,70.5,98,93,75,30.11,30.04,3,0,22,0.53
2013-8-11,86.1,75.6,70.7,77.3,72.9,70.1,99,92,71,30.14,30.05,7,1,12,0.01
2013-8-12,86.6,76.9,70.0,77.8,73.9,69.4,98,91,70,30.10,29.95,3,0,16,0.42
2013-8-13,85.6,76.7,71.5,75.6,72.3,69.6,98,87,65,30.01,29.86,7,1,12,0.08
2013-8-14,78.7,72.3,65.4,70.5,67.0,61.7,92,84,62,30.02,29.91,3,1,12,0.00
2013-8-15,78.5,69.8,63.0,66.3,62.2,60.0,93,78,61,30.07,30.00,7,1,13,0.00
2013-8-16,70.5,67.2,64.7,65.9,63.2,60.6,95,87,80,30.10,30.02,2,0,7,0.08
2013-8-17,71.3,66.9,64.4,65.4,64.2,62.8,97,91,78,30.13,30.07,3,0,9,0.12
2013-8-18,75.3,69.6,65.3,70.9,67.5,64.4,98,93,82,30.18,30.09,3,0,9,0.31
2013-8-19,82.9,72.8,67.9,75.1,70.4,67.3,98,93,71,30.14,30.02,2,0,9,0.55
2013-8-20,83.6,74.9,67.7,74.2,71.1,66.8,98,89,70,30.16,30.07,5,1,10,0.00
2013-8-21,84.0,75.1,70.4,75.8,72.4,69.5,98,92,73,30.20,30.07,3,0,12,0.56
2013-8-22,83.6,74.1,70.0,77.5,72.2,69.1,99,94,77,30.16,30.03,3,0,10,0.70
2013-8-23,87.6,75.2,67.6,76.5,71.1,67.0,99,88,62,30.09,29.97,2,0,6,0.00
2013-8-24,85.3,75.5,66.9,74.1,69.6,66.1,98,83,64,30.22,30.04,5,1,12,0.00
2013-8-25,83.5,74.5,64.3,69.2,65.8,62.3,95,76,54,30.34,30.22,6,0,12,0.00
2013-8-26,83.2,71.3,62.0,68.7,64.8,60.8,98,82,57,30.31,30.14,2,0,8,0.00
2013-8-27,86.3,72.6,61.9,72.7,66.9,61.0,98,84,58,30.16,30.02,2,0,9,0.00
2013-8-28,87.3,75.8,66.1,75.0,70.7,65.2,98,85,63,30.06,29.97,2,0,7,0.00
2013-8-29,89.7,79.8,70.3,78.8,73.5,68.9,97,82,63,30.02,29.91,3,0,10,0.00
2013-8-30,86.8,76.7,71.9,76.6,73.1,70.5,98,89,69,29.99,29.91,7,1,15,0.00
2013-8-31,90.7,79.5,72.4,78.6,74.2,71.2,97,85,57,29.96,29.82,5,1,10,0.00
2013-9-1,83.8,74.5,70.8,77.1,72.3,68.1,98,93,76,29.93,29.83,7,1,13,1.07
2013-9-2,84.0,75.4,72.1,76.3,72.4,70.7,98,91,70,29.97,29.84,6,1,12,0.10
2013-9-3,86.6,76.7,69.1,75.7,71.8,67.6,97,86,65,29.98,29.85,2,0,7,0.00
2013-9-4,86.7,73.6,64.3,71.4,67.1,63.1,97,82,51,30.09,29.97,3,0,7,0.00
2013-9-5,84.1,72.0,63.0,71.2,66.7,62.1,98,85,61,30.14,30.07,2,0,10,0.00
2013-9-6,87.1,72.6,62.5,71.3,66.4,61.3,97,83,54,30.16,30.04,5,0,8,0.00
2013-9-7,86.5,73.3,63.8,73.5,67.4,62.9,98,83,55,30.12,29.99,6,1,9,0.01
2013-9-8,87.4,74.7,64.3,75.8,69.6,63.4,98,85,62,30.01,29.93,3,0,7,0.00
2013-9-9,89.0,76.7,69.5,75.8,71.1,68.6,98,85,54,30.09,29.98,6,0,12,0.00
2013-9-10,88.8,76.6,68.0,73.8,70.2,66.9,97,82,54,30.20,30.09,6,1,12,0.00
2013-9-11,89.5,76.3,66.4,74.0,69.4,65.5,98,81,50,30.22,30.08,3,0,6,0.00
2013-9-12,88.3,76.3,66.6,74.9,69.7,65.7,98,82,54,30.09,29.90,6,0,13,0.00
2013-9-13,81.2,73.0,63.7,69.5,63.5,54.5,95,74,45,29.94,29.85,5,1,10,0.00
2013-9-14,78.8,65.0,53.4,61.8,56.5,50.5,94,75,49,30.07,29.93,2,0,7,0.00
2013-9-15,82.5,68.1,57.3,68.4,62.3,56.5,98,83,52,30.15,30.06,8,1,14,0.00
2013-9-16,83.9,70.6,60.4,70.7,63.4,59.1,98,81,44,30.16,30.07,3,0,10,0.00
2013-9-17,79.7,72.0,63.7,66.1,63.2,59.9,93,75,58,30.20,30.11,8,2,15,0.00
2013-9-18,76.5,69.4,65.1,62.9,59.8,58.3,82,72,62,30.22,30.15,7,2,14,0.00
2013-9-19,83.2,75.4,65.4,69.0,65.6,62.1,95,73,57,30.19,30.05,6,1,10,0.00
2013-9-20,85.4,72.7,63.2,68.8,65.0,62.3,98,80,50,30.07,29.86,7,1,14,0.00
2013-9-21,73.7,68.1,63.8,69.3,65.7,58.9,97,92,82,29.89,29.74,5,1,12,2.84
2013-9-22,76.1,64.3,55.7,61.4,57.9,54.3,96,81,52,29.90,29.79,3,1,12,0.00
2013-9-23,79.5,65.0,53.2,63.9,58.6,52.2,98,82,52,30.01,29.89,5,1,10,0.00
2013-9-24,68.9,66.0,60.3,65.8,62.9,58.5,95,90,82,30.02,29.88,5,1,9,0.03
2013-9-25,69.3,66.1,64.7,66.3,64.5,63.2,98,95,90,29.89,29.82,3,0,8,0.53
2013-9-26,71.8,64.6,61.8,64.7,62.5,60.6,97,93,78,30.01,29.88,3,0,7,0.00
2013-9-27,79.8,66.2,56.6,64.5,60.2,55.8,98,83,50,30.14,30.01,3,0,6,0.01
2013-9-28,77.2,66.9,58.9,65.2,60.0,56.5,97,80,58,30.21,30.09,6,1,10,0.00
2013-9-29,74.1,64.6,56.1,62.1,57.7,54.3,95,79,54,30.15,30.02,6,1,10,0.00
2013-9-30,76.0,63.7,54.4,63.8,57.8,53.6,98,83,53,30.09,29.99,7,1,13,0.00
2013-10-1,81.7,66.2,57.5,68.0,61.8,56.6,98,87,57,30.16,30.05,3,0,8,0.00
2013-10-2,82.8,69.0,58.8,71.5,64.0,58.0,98,86,58,30.17,30.05,2,0,6,0.00
2013-10-3,82.6,71.5,63.2,67.4,64.9,61.7,98,82,53,30.13,30.03,6,1,12,0.00
2013-10-4,84.5,69.1,60.4,70.9,64.1,59.5,98,86,58,30.16,30.07,6,0,7,0.00
2013-10-5,85.4,71.5,61.7,68.7,64.9,60.8,98,82,52,30.12,29.99,6,1,15,0.00
2013-10-6,80.4,69.7,62.9,71.4,66.4,62.0,98,90,67,30.01,29.80,7,1,14,0.12
2013-10-7,69.1,60.6,55.3,64.7,54.3,50.5,97,81,52,30.03,29.84,6,1,14,0.65
2013-10-8,75.6,62.0,52.7,61.0,54.6,48.4,94,78,59,30.13,30.02,5,1,14,0.00
2013-10-9,77.1,64.3,56.8,64.5,58.1,53.4,96,82,58,30.20,30.09,2,0,6,0.00
2013-10-10,78.3,64.0,54.6,63.8,58.7,53.8,98,85,54,30.15,30.02,3,0,12,0.00
2013-10-11,78.2,62.9,51.2,61.2,56.4,50.3,98,82,48,30.09,29.99,2,0,8,0.00
2013-10-12,79.7,63.7,51.4,62.8,57.2,50.6,98,82,48,30.11,30.01,3,0,9,0.01
2013-10-13,79.6,64.8,52.5,63.5,58.6,51.7,98,83,52,30.21,30.10,3,0,12,0.00
2013-10-14,79.3,66.9,56.3,66.0,61.4,55.4,98,84,57,30.22,30.08,6,0,10,0.00
2013-10-15,68.2,65.5,62.3,62.2,60.4,58.5,92,84,74,30.16,30.05,6,1,12,0.00
2013-10-16,70.2,64.0,57.8,64.8,60.3,56.4,96,88,75,30.06,29.95,5,0,9,0.00
2013-10-17,70.4,65.0,58.3,67.3,62.1,52.8,97,90,77,30.00,29.87,5,1,10,0.09
2013-10-18,67.6,56.8,49.7,55.6,50.6,48.3,95,81,53,30.06,29.96,5,1,9,0.00
2013-10-19,67.5,56.5,49.8,58.6,52.3,47.8,97,87,60,30.04,29.92,7,0,10,0.00
2013-10-20,66.3,50.9,42.0,49.3,43.5,40.5,95,79,41,30.11,30.02,3,0,12,0.00
2013-10-21,70.7,52.7,36.5,54.6,45.1,35.7,99,78,43,30.15,30.02,6,0,9,0.00
2013-10-22,70.5,59.2,51.4,54.8,52.1,49.5,96,79,50,30.04,29.86,5,0,10,0.00
2013-10-23,56.0,49.9,38.4,51.0,42.3,35.7,96,77,50,30.11,29.85,6,1,18,0.00
2013-10-24,60.5,47.1,35.9,46.6,39.9,34.3,96,78,52,30.28,30.10,6,0,12,0.00
2013-10-25,51.8,41.9,33.2,37.6,30.6,26.7,90,66,41,30.46,30.28,6,1,15,0.00
2013-10-26,59.0,42.2,27.4,39.5,33.0,26.2,96,74,37,30.38,30.18,6,1,12,0.00
2013-10-27,59.4,52.2,42.1,52.3,46.3,38.2,92,81,71,30.18,30.12,3,0,8,0.00
2013-10-28,61.2,56.0,50.6,59.1,54.4,49.5,98,95,89,30.28,30.13,3,0,7,0.05
2013-10-29,72.7,59.2,50.0,62.3,55.3,49.2,98,88,62,30.34,30.22,5,0,12,0.00
2013-10-30,77.1,63.9,56.2,62.0,58.2,55.4,98,83,51,30.29,30.13,6,0,12,0.01
2013-10-31,73.0,65.6,58.7,65.0,60.9,56.5,96,85,73,30.15,29.76,9,3,18,0.08
2013-11-1,73.6,64.9,50.9,65.2,56.5,44.8,96,77,37,29.83,29.70,7,2,17,0.29
2013-11-2,66.4,54.2,43.7,50.6,44.3,37.0,98,72,36,30.11,29.82,7,1,16,0.00
2013-11-3,60.1,48.6,39.8,44.0,41.0,38.0,95,77,47,30.32,30.10,6,1,12,0.00
2013-11-4,63.7,50.6,37.3,42.2,39.2,36.0,97,68,44,30.43,30.32,10,2,21,0.00
2013-11-5,66.9,54.6,42.8,45.7,39.7,35.6,82,58,41,30.46,30.31,5,1,12,0.00
2013-11-6,71.3,62.4,54.4,59.3,54.5,37.6,93,76,53,30.32,30.08,9,2,18,0.01
2013-11-7,63.7,54.4,45.2,59.7,45.6,32.4,97,74,48,30.27,30.02,8,3,17,0.33
2013-11-8,56.6,44.6,35.1,33.6,30.4,24.9,86,60,30,30.40,30.27,7,1,13,0.00
2013-11-9,55.3,43.8,31.1,40.1,34.8,29.6,96,73,46,30.37,30.25,7,1,13,0.00
2013-11-10,67.5,53.5,42.3,45.9,40.7,33.4,94,65,36,30.33,30.23,6,1,12,0.00
2013-11-11,67.1,50.5,36.1,41.4,34.8,29.6,82,57,30,30.34,30.17,6,1,12,0.00
2013-11-12,55.6,42.8,31.9,43.2,31.2,16.4,91,65,42,30.55,30.16,10,4,23,0.00
2013-11-13,46.1,34.5,27.4,23.1,19.3,16.1,77,55,30,30.67,30.51,7,2,14,0.00
2013-11-14,57.2,37.4,21.6,27.3,22.6,18.9,94,62,23,30.54,30.32,6,1,12,0.00
2013-11-15,53.9,45.3,36.0,44.9,36.4,23.2,96,73,42,30.33,30.15,5,0,8,0.09
2013-11-16,63.1,53.8,45.1,57.8,51.4,44.0,98,92,83,30.23,30.11,8,2,16,0.00
2013-11-17,68.1,62.4,60.5,67.4,60.2,56.4,98,93,85,30.12,29.88,8,4,20,0.16
2013-11-18,68.7,60.5,50.3,67.5,44.4,33.8,97,58,34,30.13,29.89,9,3,16,0.01
2013-11-19,55.0,47.6,41.1,34.1,29.7,27.1,67,50,34,30.22,30.11,10,4,21,0.00
2013-11-20,58.7,47.4,32.3,36.1,32.6,29.4,90,59,38,30.33,30.18,9,2,16,0.00
2013-11-21,60.8,55.0,50.6,52.2,45.3,34.7,87,70,53,30.37,30.28,9,4,16,0.00
2013-11-22,61.6,57.4,54.0,57.9,55.0,51.3,97,92,85,30.33,30.19,7,2,12,0.08
2013-11-23,56.4,48.2,37.2,54.4,40.6,22.9,93,76,54,30.37,30.18,10,4,20,0.00
2013-11-24,38.7,32.0,25.7,23.0,15.3,9.4,67,51,32,30.57,30.36,12,5,23,0.00
2013-11-25,44.0,35.8,25.4,35.1,20.3,10.3,94,57,27,30.50,30.23,7,2,17,0.33
2013-11-26,43.6,38.9,34.4,42.8,37.8,33.2,100,96,90,30.23,29.77,6,2,16,2.65
2013-11-27,39.3,33.3,25.9,36.6,25.5,17.8,90,73,60,30.33,29.81,10,5,22,0.01
2013-11-28,46.8,31.6,23.9,26.6,21.3,17.1,90,68,35,30.52,30.33,6,1,12,0.00
2013-11-29,52.5,35.5,22.3,31.0,25.7,20.7,95,72,34,30.60,30.49,6,1,10,0.00
2013-11-30,53.9,42.6,28.7,30.9,28.6,26.4,93,60,38,30.57,30.34,8,2,13,0.00
2013-12-1,55.3,42.9,28.5,40.8,33.6,26.2,93,71,50,30.34,30.04,5,0,9,0.00
2013-12-2,49.8,46.7,43.7,49.2,44.6,39.4,98,93,75,30.04,29.83,3,0,8,0.18
2013-12-3,55.2,52.8,49.7,54.2,51.8,49.2,98,97,93,29.90,29.83,6,1,10,0.01
2013-12-4,71.1,61.1,55.1,64.1,58.6,53.4,97,92,77,30.00,29.89,6,2,13,0.00
2013-12-5,71.6,66.4,62.2,68.0,64.8,60.7,97,95,88,30.04,29.92,6,2,12,0.07
2013-12-6,75.6,62.5,41.0,67.9,60.1,38.9,98,92,75,30.15,29.89,9,3,30,0.89
2013-12-7,41.0,39.3,37.7,40.2,36.5,35.0,97,90,85,30.38,30.16,10,5,20,0.00
2013-12-8,47.6,42.8,37.1,46.4,41.7,35.7,98,96,93,30.34,30.12,8,3,18,0.60
2013-12-9,52.4,47.3,43.8,49.9,45.8,41.5,97,95,89,30.19,30.04,6,1,10,0.24
2013-12-10,43.5,38.6,28.4,41.9,34.2,26.2,96,85,60,30.40,30.01,8,2,17,0.49
2013-12-11,52.3,35.9,24.9,34.0,28.6,23.7,97,77,40,30.50,30.38,3,0,9,0.01
2013-12-12,41.1,33.1,26.4,27.6,23.0,17.0,86,68,38,30.56,30.44,8,2,17,0.00
2013-12-13,48.1,35.8,22.1,33.7,25.0,20.0,93,68,37,30.47,30.18,5,0,8,0.00
2013-12-14,51.9,48.9,45.4,51.4,43.4,27.3,98,84,47,30.21,29.83,7,2,20,0.82
2013-12-15,47.9,37.6,31.7,44.9,32.9,28.6,91,83,77,30.26,29.89,9,3,16,0.00
2013-12-16,53.9,37.4,25.6,38.1,31.8,24.4,97,82,52,30.31,30.19,6,1,12,0.00
2013-12-17,62.7,45.8,32.5,39.7,34.8,30.3,94,69,38,30.27,30.07,9,2,21,0.00
2013-12-18,50.6,39.2,30.5,30.9,25.9,21.5,83,61,32,30.39,30.26,5,1,15,0.00
2013-12-19,59.8,45.7,29.6,32.4,26.9,21.8,87,50,30,30.35,30.19,7,1,17,0.00
2013-12-20,62.3,53.4,41.8,52.4,40.7,30.4,81,63,51,30.21,30.09,7,2,13,0.00
2013-12-21,67.8,62.0,56.9,65.5,59.1,52.0,97,90,81,30.09,29.84,8,4,20,0.28
2013-12-22,68.0,59.4,54.8,66.2,57.9,53.9,97,95,85,30.08,29.81,15,3,22,1.83
2013-12-23,54.8,44.7,33.6,54.0,40.7,28.1,98,86,75,30.36,30.05,10,3,18,0.15
2013-12-24,36.9,31.8,27.2,28.3,23.4,18.5,85,72,49,30.51,30.36,9,3,20,0.00
2013-12-25,46.0,32.4,20.1,27.6,22.3,17.5,92,68,44,30.51,30.37,9,1,13,0.00
2013-12-26,49.6,36.1,25.6,32.3,27.9,23.6,94,74,46,30.43,30.33,5,1,8,0.00
2013-12-27,53.5,36.8,25.8,32.6,28.4,24.3,95,75,39,30.52,30.38,3,0,6,0.00
2013-12-28,39.8,35.3,29.4,38.2,33.2,27.2,97,92,76,30.44,30.00,6,0,13,1.19
2013-12-29,49.0,42.2,36.8,45.2,40.3,35.7,99,93,83,30.10,29.92,6,1,12,0.43
2013-12-30,44.4,39.9,37.3,42.2,36.6,33.2,98,88,80,30.27,30.08,7,1,12,0.00
2013-12-31,41.0,35.4,29.5,34.4,30.2,27.0,94,82,61,30.48,30.25,7,1,14,0.00
2014-1-1,50.1,37.5,26.9,35.9,30.9,25.6,96,79,56,30.40,30.13,7,1,15,0.01
2014-1-2,47.6,39.1,23.3,46.5,34.7,15.1,97,84,69,30.24,29.81,12,3,23,0.28